F/V Izaskun Berria — ECBA — position and weather

sailwx.info

Track history (hours):
 
Tides and Currents Weather Stations Pressure Air Temp Water Temp Dewpoint Dewpoint Depression Visibility Wind Speed Wind Dir Waves Ship Positions

F/V Izaskun Berria

Last reported at 2017-Apr-25 10:13 UTC. Time now 2017-Apr-28 06:28 UTC.
Position N 43°48' W 002°06'.

Length 36 m.

Type: Fishing. MMSI: 224086790.

Date/timePositionNaut miles runAvg speedWind from/ knotsBaromVisibWave heightAir tempDewpointWater temp
2017-Apr-25 10:13N 43°48' W 002°06'9 0.7
2017-Apr-24 21:31N 43°39' W 002°08'010.1
2017-Apr-24 21:30N 43°39' W 002°08'510.6
2017-Apr-24 21:00N 43°34' W 002°09'810.8
2017-Apr-24 20:14N 43°25' W 002°10'710.5
2017-Apr-24 19:33N 43°18' W 002°12'0 0.2
2017-Apr-24 18:43N 43°18' W 002°12'8 9.9
2017-Apr-24 17:56N 43°26' W 002°09'910.9
2017-Apr-24 17:07N 43°35' W 002°07'111.2
2017-Apr-24 17:00N 43°36' W 002°07'611.3
2017-Apr-24 16:29N 43°42' W 002°05'511.1
2017-Apr-24 16:00N 43°47' W 002°04'510.9
2017-Apr-24 15:30N 43°52' W 002°03'511.0
2017-Apr-24 15:00N 43°58' W 002°01'1 1.1
2017-Apr-24 14:09N 43°58' W 002°01'4 3.5
2017-Apr-24 13:08N 43°56' W 001°57'0 0.3
2017-Apr-24 12:54N 43°56' W 001°57'0 0.5
2017-Apr-24 12:26N 43°56' W 001°57'0 0.3
2017-Apr-24 11:48N 43°56' W 001°57'1 1.9
2017-Apr-24 11:30N 43°56' W 001°58'  
Track history (hours):
 
Tides and Currents Weather Stations Pressure Air Temp Water Temp Dewpoint Dewpoint Depression Visibility Wind Speed Wind Dir Waves Ship Positions

F/V Izaskun Berria

Last reported at 2017-Apr-25 10:13 UTC. Time now 2017-Apr-28 06:28 UTC.
Position N 43°48' W 002°06'.

Length 36 m.

Type: Fishing. MMSI: 224086790.

Date/timePositionNaut miles runAvg speedWind from/ knotsBaromVisibWave heightAir tempDewpointWater temp
2017-Apr-25 10:13N 43°48' W 002°06'9 0.7
2017-Apr-24 21:31N 43°39' W 002°08'010.1
2017-Apr-24 21:30N 43°39' W 002°08'510.6
2017-Apr-24 21:00N 43°34' W 002°09'810.8
2017-Apr-24 20:14N 43°25' W 002°10'710.5
2017-Apr-24 19:33N 43°18' W 002°12'0 0.2
2017-Apr-24 18:43N 43°18' W 002°12'8 9.9
2017-Apr-24 17:56N 43°26' W 002°09'910.9
2017-Apr-24 17:07N 43°35' W 002°07'111.2
2017-Apr-24 17:00N 43°36' W 002°07'611.3
2017-Apr-24 16:29N 43°42' W 002°05'511.1
2017-Apr-24 16:00N 43°47' W 002°04'510.9
2017-Apr-24 15:30N 43°52' W 002°03'511.0
2017-Apr-24 15:00N 43°58' W 002°01'1 1.1
2017-Apr-24 14:09N 43°58' W 002°01'4 3.5
2017-Apr-24 13:08N 43°56' W 001°57'0 0.3
2017-Apr-24 12:54N 43°56' W 001°57'0 0.5
2017-Apr-24 12:26N 43°56' W 001°57'0 0.3
2017-Apr-24 11:48N 43°56' W 001°57'1 1.9
2017-Apr-24 11:30N 43°56' W 001°58'  

Dump ship's entire track history